Date,TemperatureHighF,TemperatureAvgF,TemperatureLowF,DewpointHighF,DewpointAvgF,DewpointLowF,HumidityHigh,HumidityAvg,HumidityLow,PressureMaxIn,PressureMinIn,WindSpeedMaxMPH,WindSpeedAvgMPH,GustSpeedMaxMPH,PrecipitationSumIn
2013-10-1,77.3,57.3,42.1,63.0,52.5,42.0,100,86,57,30.00,29.86,5,0,10,0.00
2013-10-2,76.0,60.6,47.5,65.0,56.5,47.0,100,88,63,29.99,29.87,6,1,13,0.00
2013-10-3,75.2,59.1,44.8,60.0,52.8,44.0,100,83,45,30.10,29.99,5,0,7,0.00
2013-10-4,61.0,57.7,54.3,60.0,56.7,54.0,100,96,88,30.07,30.01,2,0,4,0.35
2013-10-5,61.7,58.1,55.5,57.0,55.1,52.0,96,90,80,30.09,30.03,1,0,3,0.01
2013-10-6,62.1,56.6,51.6,61.0,55.2,51.0,100,95,82,30.09,29.99,3,0,7,0.38
2013-10-7,75.5,62.3,50.1,69.0,60.6,50.0,99,94,80,29.99,29.59,9,1,13,0.90
2013-10-8,65.7,52.2,40.6,50.0,45.2,40.0,100,80,47,30.35,29.92,3,1,8,0.00
2013-10-9,66.4,46.9,34.8,51.0,41.9,35.0,100,86,42,30.46,30.32,4,0,5,0.00
2013-10-10,60.0,48.5,35.1,53.0,45.7,35.0,100,91,70,30.33,30.15,1,0,3,0.00
2013-10-11,70.4,54.2,42.9,55.0,49.3,42.0,100,86,46,30.15,30.06,3,0,6,0.00
2013-10-12,76.3,53.1,38.2,58.0,47.9,38.0,100,85,52,30.32,30.13,1,0,4,0.00
2013-10-13,70.9,56.1,44.6,53.0,50.4,44.0,100,83,49,30.39,30.28,4,0,6,0.00
2013-10-14,67.6,56.0,43.6,57.0,51.7,43.0,100,86,66,30.33,30.21,3,0,6,0.00
2013-10-15,71.4,58.5,50.7,61.0,56.0,51.0,100,91,69,30.24,30.07,2,0,3,0.00
2013-10-16,64.8,56.4,47.5,57.0,52.4,46.0,100,86,74,30.08,29.82,3,0,7,0.00
2013-10-17,71.1,60.2,52.6,57.0,53.6,50.0,97,80,50,29.86,29.58,4,1,10,0.07
2013-10-18,64.2,54.3,38.7,54.0,46.7,38.0,99,78,41,29.92,29.56,8,2,15,0.07
2013-10-19,65.5,49.6,35.6,49.0,42.8,35.0,100,81,46,29.93,29.66,7,1,12,0.02
2013-10-20,59.6,49.6,39.3,49.0,40.0,36.0,93,72,42,30.00,29.66,8,1,15,0.02
2013-10-21,68.6,52.3,37.3,47.0,42.1,37.0,99,72,42,30.08,29.87,5,1,10,0.00
2013-10-22,55.1,48.2,32.0,51.0,42.5,31.0,97,81,59,29.87,29.73,5,1,12,0.02
2013-10-23,53.6,42.2,31.9,40.0,35.5,31.0,100,79,51,29.80,29.60,4,0,10,0.00
2013-10-24,50.3,40.7,27.7,37.0,32.8,27.0,99,76,47,29.91,29.70,5,1,14,0.00
2013-10-25,50.1,40.2,31.1,36.0,33.4,29.0,97,78,53,30.14,29.92,8,2,14,0.00
2013-10-26,52.1,41.1,28.7,37.0,33.7,28.0,99,78,45,30.13,29.80,4,0,8,0.00
2013-10-27,51.0,43.1,29.1,38.0,35.6,28.0,97,76,56,30.06,29.78,9,1,16,0.00
2013-10-28,55.1,38.9,26.3,43.0,31.4,25.0,100,78,42,30.36,30.05,10,1,13,0.00
2013-10-29,47.9,31.9,20.3,31.0,24.9,19.0,98,79,41,30.46,30.34,2,0,7,0.00
2013-10-30,52.2,37.6,30.6,42.0,34.4,28.0,98,88,66,30.33,30.18,2,0,3,0.01
2013-10-31,59.1,45.9,29.1,59.0,45.6,29.0,100,99,94,30.21,29.62,9,1,12,0.39